Time;durP1;ratioP1;P1;durP2;ratioP2;P2;SDS_P1;SDS_P2;PMS_P1;PMS_P2;Temp;Humidity;BMP_temperature;BMP_pressure;BME280_temperature;BME280_humidity;BME280_pressure;Samples;Min_cycle;Max_cycle;Signal;HPM_P1;HPM_P2
2021/12/24 00:01:45;;;;;;;;;;;;;;;-20.63;58.09;96846.50;6398486;27;20384;-68
2021/12/24 00:04:46;;;;;;;;;;;;;;;-20.45;58.65;96847.44;6397774;27;19951;-68
2021/12/24 00:07:49;;;;;;;;;;;;;;;-20.55;58.63;96859.38;6398041;27;19923;-68
2021/12/24 00:10:58;;;;;;;;;;;;;;;-20.32;58.13;96860.59;6397407;27;19923;-69
2021/12/24 00:14:03;;;;;;;;;;;;;;;-20.16;57.21;96870.63;6397021;27;19946;-69
2021/12/24 00:17:05;;;;;;;;;;;;;;;-20.17;57.11;96873.94;6396944;27;19927;-69
2021/12/24 00:36:41;;;;;;;;;;;;;;;-20.24;56.64;96849.34;6396677;27;19930;-69
2021/12/24 00:40:28;;;;;;;;;;;;;;;-20.10;56.60;96865.09;6397628;27;20014;-69
2021/12/24 00:43:11;;;;;;;;;;;;;;;-20.10;56.27;96847.56;6386224;27;19919;-69
2021/12/24 00:46:12;;;;;;;;;;;;;;;-20.21;57.07;96852.00;6396791;27;20340;-69
2021/12/24 00:49:13;;;;;;;;;;;;;;;-20.22;57.02;96845.28;6396490;27;19922;-69
2021/12/24 00:52:45;;;;;;;;;;;;;;;-20.23;56.15;96848.56;6397361;27;19923;-68
2021/12/24 00:55:43;;;;;;;;;;;;;;;-20.29;56.60;96844.13;6395898;27;19930;-69
2021/12/24 00:58:46;;;;;;;;;;;;;;;-20.60;57.69;96851.66;6396316;27;20380;-69
2021/12/24 01:01:49;;;;;;;;;;;;;;;-20.56;57.14;96857.69;6397613;27;19965;-69
2021/12/24 01:04:50;;;;;;;;;;;;;;;-20.42;57.47;96866.75;6397604;27;19930;-69
2021/12/24 01:07:54;;;;;;;;;;;;;;;-20.22;56.73;96862.81;6398915;27;20413;-69
2021/12/24 01:10:56;;;;;;;;;;;;;;;-20.55;56.85;96870.25;6396754;27;19922;-68
2021/12/24 01:13:59;;;;;;;;;;;;;;;-20.36;57.37;96853.72;6396596;27;19930;-69
2021/12/24 01:17:32;;;;;;;;;;;;;;;-20.66;57.46;96851.31;6396239;27;19927;-68
2021/12/24 01:27:00;;;;;;;;;;;;;;;-20.43;57.64;96875.06;6396990;27;19923;-69
2021/12/24 01:40:20;;;;;;;;;;;;;;;-20.62;57.73;96898.22;6398392;27;19959;-69
2021/12/24 01:43:22;;;;;;;;;;;;;;;-20.55;57.50;96905.28;6401623;27;19923;-68
2021/12/24 01:46:25;;;;;;;;;;;;;;;-20.64;57.39;96908.13;6400707;27;19923;-69
2021/12/24 01:49:31;;;;;;;;;;;;;;;-20.41;58.12;96894.34;6400731;27;20019;-68
2021/12/24 01:52:33;;;;;;;;;;;;;;;-20.46;58.58;96890.75;6400150;27;19922;-68
2021/12/24 01:55:34;;;;;;;;;;;;;;;-20.40;57.52;96906.09;6400360;27;19923;-68
2021/12/24 01:58:36;;;;;;;;;;;;;;;-20.49;57.71;96895.59;6401172;27;19927;-69
2021/12/24 02:01:37;;;;;;;;;;;;;;;-20.29;57.65;96878.25;6400317;27;20400;-69
2021/12/24 02:04:38;;;;;;;;;;;;;;;-20.32;57.98;96903.13;6400435;27;19923;-68
2021/12/24 02:07:39;;;;;;;;;;;;;;;-20.34;57.87;96879.69;6400401;27;19922;-68
2021/12/24 02:10:41;;;;;;;;;;;;;;;-20.59;58.99;96873.38;6400227;27;19923;-69
2021/12/24 02:14:04;;;;;;;;;;;;;;;-20.40;58.63;96893.59;6382409;27;19923;-69
2021/12/24 02:30:22;;;;;;;;;;;;;;;-20.85;59.16;96974.47;6399527;27;19923;-68
2021/12/24 02:33:23;;;;;;;;;;;;;;;-20.88;59.62;96969.31;6399743;27;19923;-68
2021/12/24 02:36:28;;;;;;;;;;;;;;;-20.59;58.90;96972.59;6396759;27;19945;-68
2021/12/24 02:39:29;;;;;;;;;;;;;;;-20.71;58.75;96963.63;6398862;27;19923;-69
2021/12/24 02:42:31;;;;;;;;;;;;;;;-20.43;57.77;96952.63;6380843;27;19968;-70
2021/12/24 02:45:33;;;;;;;;;;;;;;;-20.75;58.15;96960.84;6399979;27;19923;-69
2021/12/24 02:48:58;;;;;;;;;;;;;;;-20.55;57.79;96964.47;6398968;27;19927;-70
2021/12/24 02:55:18;;;;;;;;;;;;;;;-20.58;58.34;96975.16;6398742;27;20404;-69
2021/12/24 02:58:20;;;;;;;;;;;;;;;-20.59;57.62;96983.44;6399156;27;19923;-69
2021/12/24 03:01:30;;;;;;;;;;;;;;;-20.54;58.28;96989.56;6399470;27;19923;-70
2021/12/24 03:04:31;;;;;;;;;;;;;;;-20.59;58.30;96995.94;6399337;27;19923;-69
2021/12/24 03:07:32;;;;;;;;;;;;;;;-20.69;57.86;97001.19;6399202;27;19930;-70
2021/12/24 03:10:35;;;;;;;;;;;;;;;-20.76;58.13;97001.63;6399539;27;19923;-69
2021/12/24 03:13:36;;;;;;;;;;;;;;;-20.72;58.06;97011.03;6380974;27;19922;-69
2021/12/24 03:16:39;;;;;;;;;;;;;;;-20.74;58.26;97010.09;6398117;27;19923;-68
2021/12/24 03:19:40;;;;;;;;;;;;;;;-20.41;56.70;97016.94;6398060;27;19999;-69
2021/12/24 03:25:53;;;;;;;;;;;;;;;-20.83;56.48;97029.56;6372155;27;20319;-69
2021/12/24 03:28:54;;;;;;;;;;;;;;;-21.03;57.20;97034.25;6372913;27;19930;-69
2021/12/24 03:31:57;;;;;;;;;;;;;;;-21.17;57.44;97030.97;6373303;27;19928;-69
2021/12/24 03:35:03;;;;;;;;;;;;;;;-21.18;57.95;97036.72;6373415;27;20331;-69
2021/12/24 03:38:05;;;;;;;;;;;;;;;-21.28;58.91;97036.97;6372707;27;19923;-70
2021/12/24 03:41:10;;;;;;;;;;;;;;;-21.12;57.32;97038.72;6372827;27;19927;-69
2021/12/24 03:44:13;;;;;;;;;;;;;;;-20.86;56.95;97032.75;6372662;27;19933;-68
2021/12/24 03:47:18;;;;;;;;;;;;;;;-20.88;56.38;97030.16;6372663;27;19923;-69
2021/12/24 03:50:19;;;;;;;;;;;;;;;-20.89;57.00;97043.41;6372180;27;19946;-69
2021/12/24 03:56:44;;;;;;;;;;;;;;;-21.10;56.43;97047.19;6370684;27;19924;-69
2021/12/24 03:59:48;;;;;;;;;;;;;;;-21.00;57.32;97061.97;6372777;27;19923;-69
2021/12/24 04:02:50;;;;;;;;;;;;;;;-21.28;57.16;97066.06;6372049;27;19931;-69
2021/12/24 04:05:53;;;;;;;;;;;;;;;-20.74;57.12;97072.63;6371606;27;19923;-68
2021/12/24 04:08:54;;;;;;;;;;;;;;;-20.87;57.01;97056.88;6372146;27;20419;-69
2021/12/24 04:11:55;;;;;;;;;;;;;;;-20.70;56.30;97064.50;6371703;27;19931;-69
2021/12/24 04:14:59;;;;;;;;;;;;;;;-20.90;56.26;97076.72;6371563;27;19923;-70
2021/12/24 04:18:00;;;;;;;;;;;;;;;-20.77;56.10;97072.41;6371550;27;19931;-69
2021/12/24 04:27:44;;;;;;;;;;;;;;;-20.67;55.29;97065.53;6397624;27;19923;-72
2021/12/24 04:30:50;;;;;;;;;;;;;;;-20.75;55.69;97090.88;6396616;27;20308;-69
2021/12/24 04:33:51;;;;;;;;;;;;;;;-20.97;56.06;97074.63;6396468;27;19923;-69
2021/12/24 05:03:34;;;;;;;;;;;;;;;-21.28;56.10;97136.03;6396099;27;19918;-68
2021/12/24 05:06:41;;;;;;;;;;;;;;;-21.23;56.31;97142.19;6396116;27;20397;-70
2021/12/24 05:09:42;;;;;;;;;;;;;;;-21.22;55.97;97146.44;6396279;27;19926;-70
2021/12/24 05:12:45;;;;;;;;;;;;;;;-21.32;55.88;97143.34;6397054;27;19926;-69
2021/12/24 05:15:57;;;;;;;;;;;;;;;-21.35;56.54;97144.78;6399658;27;20037;-68
2021/12/24 05:22:08;;;;;;;;;;;;;;;-20.85;55.53;97160.38;6401342;27;19983;-68
2021/12/24 05:25:11;;;;;;;;;;;;;;;-20.86;55.51;97161.16;6401909;27;20403;-69
2021/12/24 05:28:14;;;;;;;;;;;;;;;-20.91;55.47;97160.00;6383216;27;19923;-69
2021/12/24 05:31:18;;;;;;;;;;;;;;;-20.80;55.26;97172.28;6400388;27;19929;-70
2021/12/24 05:34:20;;;;;;;;;;;;;;;-20.76;55.22;97169.19;6400793;27;19924;-69
2021/12/24 05:37:21;;;;;;;;;;;;;;;-20.60;55.12;97180.97;6400620;27;20419;-69
2021/12/24 05:40:27;;;;;;;;;;;;;;;-20.43;54.55;97168.66;6401494;27;20319;-69
2021/12/24 05:43:30;;;;;;;;;;;;;;;-20.24;54.20;97162.22;6401547;27;19967;-69
2021/12/24 05:46:37;;;;;;;;;;;;;;;-20.25;54.07;97165.50;6401087;27;20384;-70
2021/12/24 05:49:38;;;;;;;;;;;;;;;-20.40;54.04;97176.34;6400847;27;19923;-69
2021/12/24 05:52:41;;;;;;;;;;;;;;;-20.28;54.45;97172.81;6402084;27;19927;-68
2021/12/24 05:55:43;;;;;;;;;;;;;;;-20.13;53.93;97172.84;6401960;27;20399;-69
2021/12/24 05:58:48;;;;;;;;;;;;;;;-20.13;53.73;97186.22;6402161;27;20008;-69
2021/12/24 06:01:55;;;;;;;;;;;;;;;-20.05;54.08;97190.03;6400752;27;20295;-69
2021/12/24 06:04:56;;;;;;;;;;;;;;;-20.27;54.32;97212.09;6400658;27;19923;-69
2021/12/24 06:08:03;;;;;;;;;;;;;;;-20.26;54.29;97216.34;6401102;27;19923;-69
2021/12/24 06:11:07;;;;;;;;;;;;;;;-20.11;53.63;97223.88;6400879;27;19923;-69
2021/12/24 06:14:12;;;;;;;;;;;;;;;-20.31;54.12;97217.69;6400884;27;20459;-69
2021/12/24 06:17:17;;;;;;;;;;;;;;;-20.33;53.61;97222.59;6399023;27;20392;-68
2021/12/24 06:20:19;;;;;;;;;;;;;;;-20.27;53.61;97227.97;6399736;27;20346;-69
2021/12/24 06:23:24;;;;;;;;;;;;;;;-20.16;53.74;97223.59;6400441;27;19923;-69
2021/12/24 06:26:25;;;;;;;;;;;;;;;-20.03;53.16;97225.19;6398913;27;19930;-69
2021/12/24 06:29:28;;;;;;;;;;;;;;;-20.05;53.42;97214.22;6400618;27;19922;-69
2021/12/24 06:32:29;;;;;;;;;;;;;;;-20.03;53.44;97210.16;6399548;27;19923;-69
2021/12/24 06:35:30;;;;;;;;;;;;;;;-20.12;53.68;97207.09;6399374;27;19946;-69
2021/12/24 06:38:32;;;;;;;;;;;;;;;-20.21;53.53;97212.44;6399602;27;19923;-69
2021/12/24 06:41:37;;;;;;;;;;;;;;;-19.97;52.78;97215.53;6399358;27;19926;-69
2021/12/24 06:44:39;;;;;;;;;;;;;;;-19.94;52.76;97199.03;6398790;27;19929;-68
2021/12/24 06:47:42;;;;;;;;;;;;;;;-19.89;53.10;97208.47;6399982;27;19923;-69
2021/12/24 06:50:44;;;;;;;;;;;;;;;-20.00;53.20;97201.19;6399671;27;20299;-70
2021/12/24 06:53:45;;;;;;;;;;;;;;;-19.94;54.01;97194.00;6399058;27;19922;-70
2021/12/24 06:56:46;;;;;;;;;;;;;;;-19.88;53.86;97207.66;6398802;27;19952;-70
2021/12/24 06:59:47;;;;;;;;;;;;;;;-19.88;53.04;97213.53;6398680;27;20019;-69
2021/12/24 07:02:51;;;;;;;;;;;;;;;-19.81;52.30;97212.25;6399177;27;20391;-69
2021/12/24 07:05:52;;;;;;;;;;;;;;;-19.86;52.47;97224.53;6398442;27;19927;-69
2021/12/24 07:08:53;;;;;;;;;;;;;;;-19.85;52.33;97223.72;6398167;27;20285;-69
2021/12/24 07:11:54;;;;;;;;;;;;;;;-19.69;52.03;97230.50;6398177;27;19923;-69
2021/12/24 07:14:55;;;;;;;;;;;;;;;-19.85;53.08;97237.91;6380144;27;19929;-69
2021/12/24 07:17:56;;;;;;;;;;;;;;;-19.74;53.25;97234.38;6397826;27;20413;-69
2021/12/24 07:20:58;;;;;;;;;;;;;;;-17.71;51.49;97233.41;6397965;27;20392;-69
2021/12/24 07:24:02;;;;;;;;;;;;;;;-13.65;44.10;97242.91;6398864;27;20346;-70
2021/12/24 07:27:04;;;;;;;;;;;;;;;-10.83;38.45;97239.34;6397910;27;20349;-70
2021/12/24 07:30:08;;;;;;;;;;;;;;;-8.56;35.67;97248.94;6399039;27;19922;-71
2021/12/24 07:33:14;;;;;;;;;;;;;;;-7.34;31.79;97249.72;6399208;27;20014;-70
2021/12/24 07:36:18;;;;;;;;;;;;;;;-6.23;31.26;97249.00;6397745;27;19930;-71
2021/12/24 07:39:22;;;;;;;;;;;;;;;-5.13;29.02;97252.09;6398248;27;19923;-69
2021/12/24 07:42:27;;;;;;;;;;;;;;;-4.54;27.68;97248.75;6398562;27;20299;-70
2021/12/24 07:45:28;;;;;;;;;;;;;;;-3.09;27.97;97243.28;6397539;27;19923;-69
2021/12/24 07:48:32;;;;;;;;;;;;;;;-2.10;26.63;97264.94;6397820;27;19923;-70
2021/12/24 07:54:57;;;;;;;;;;;;;;;-0.53;24.52;97259.69;6399908;27;19923;-69
2021/12/24 07:58:01;;;;;;;;;;;;;;;-0.36;25.29;97263.75;6380526;27;19954;-68
2021/12/24 08:01:05;;;;;;;;;;;;;;;-1.03;20.83;97258.63;6397190;27;19995;-69
2021/12/24 08:04:07;;;;;;;;;;;;;;;-2.31;21.27;97246.22;6397091;27;20277;-70
2021/12/24 08:07:10;;;;;;;;;;;;;;;-2.90;21.18;97260.34;6397863;27;19923;-70
2021/12/24 08:10:11;;;;;;;;;;;;;;;-3.62;22.56;97258.94;6397013;27;20021;-70
2021/12/24 08:13:12;;;;;;;;;;;;;;;-3.55;21.79;97243.50;6396745;27;20397;-69
2021/12/24 08:16:19;;;;;;;;;;;;;;;-3.41;21.78;97247.72;6398452;27;19927;-70
2021/12/24 08:19:23;;;;;;;;;;;;;;;-3.89;21.96;97265.00;6396323;27;19923;-70
2021/12/24 08:22:24;;;;;;;;;;;;;;;-5.37;22.65;97257.16;6396712;27;19930;-70
2021/12/24 08:25:26;;;;;;;;;;;;;;;-6.13;24.33;97255.94;6395945;27;19951;-69
2021/12/24 08:28:27;;;;;;;;;;;;;;;-6.13;23.77;97245.69;6378148;27;19923;-69
2021/12/24 08:31:29;;;;;;;;;;;;;;;-6.43;24.03;97254.84;6397002;27;20021;-69
2021/12/24 08:34:30;;;;;;;;;;;;;;;-6.02;24.38;97267.09;6396865;27;19923;-68
2021/12/24 08:37:37;;;;;;;;;;;;;;;-5.19;24.24;97260.63;6397684;27;19923;-69
2021/12/24 08:40:38;;;;;;;;;;;;;;;-3.47;22.84;97257.19;6397338;27;19956;-68
2021/12/24 08:43:39;;;;;;;;;;;;;;;-3.51;21.77;97261.50;6396276;27;19935;-69
2021/12/24 08:46:42;;;;;;;;;;;;;;;-4.01;22.01;97253.91;6396351;27;19976;-69
2021/12/24 08:49:44;;;;;;;;;;;;;;;-4.26;22.57;97248.78;6399795;27;19930;-70
2021/12/24 08:52:46;;;;;;;;;;;;;;;-3.91;22.51;97255.56;6404942;27;20256;-70
2021/12/24 08:55:50;;;;;;;;;;;;;;;-3.37;22.28;97261.44;6405796;27;19923;-68
2021/12/24 08:58:54;;;;;;;;;;;;;;;-2.59;22.10;97275.63;6405677;27;20262;-69
2021/12/24 09:01:58;;;;;;;;;;;;;;;-1.77;21.65;97278.41;6405126;27;19930;-68
2021/12/24 09:05:02;;;;;;;;;;;;;;;-1.50;21.32;97274.69;6405870;27;19930;-69
2021/12/24 09:08:04;;;;;;;;;;;;;;;-1.47;20.44;97272.06;6404731;27;19923;-68
2021/12/24 09:11:08;;;;;;;;;;;;;;;-3.42;21.29;97270.91;6405665;27;19927;-68
2021/12/24 09:14:19;;;;;;;;;;;;;;;-4.26;22.83;97274.47;6404876;27;19930;-69
2021/12/24 09:17:27;;;;;;;;;;;;;;;-3.53;22.08;97282.94;6405822;27;19923;-70
2021/12/24 09:20:37;;;;;;;;;;;;;;;-3.99;21.68;97280.44;6405660;27;19922;-68
2021/12/24 09:23:38;;;;;;;;;;;;;;;-4.53;22.55;97285.56;6405758;27;19930;-69
2021/12/24 09:26:41;;;;;;;;;;;;;;;-4.10;22.48;97276.19;6405603;27;19923;-69
2021/12/24 09:29:44;;;;;;;;;;;;;;;-4.08;22.56;97274.47;6405852;27;19923;-68
2021/12/24 09:32:45;;;;;;;;;;;;;;;-4.63;22.25;97271.88;6404744;27;20422;-69
2021/12/24 09:35:47;;;;;;;;;;;;;;;-5.38;23.11;97281.06;6386907;27;19930;-69
2021/12/24 09:38:56;;;;;;;;;;;;;;;-5.91;23.89;97270.56;6405297;27;19923;-69
2021/12/24 09:41:58;;;;;;;;;;;;;;;-5.97;23.99;97280.81;6404250;27;19930;-68
2021/12/24 09:45:02;;;;;;;;;;;;;;;-5.85;23.87;97287.69;6405487;27;19923;-69
2021/12/24 09:48:09;;;;;;;;;;;;;;;-5.84;23.78;97291.09;6405520;27;19927;-68
2021/12/24 09:51:10;;;;;;;;;;;;;;;-5.92;23.87;97289.31;6405248;27;19923;-69
2021/12/24 09:54:13;;;;;;;;;;;;;;;-5.39;23.90;97289.63;6405467;27;19923;-69
2021/12/24 09:57:15;;;;;;;;;;;;;;;-5.67;24.00;97289.47;6405334;27;19923;-68
2021/12/24 10:00:20;;;;;;;;;;;;;;;-6.23;23.90;97283.16;6404379;27;19923;-68
2021/12/24 10:03:32;;;;;;;;;;;;;;;-6.66;24.67;97276.84;6401325;27;19972;-69
2021/12/24 10:06:37;;;;;;;;;;;;;;;-7.27;25.32;97277.94;6401155;27;20297;-68
2021/12/24 10:09:43;;;;;;;;;;;;;;;-9.82;27.67;97277.19;6399919;27;20440;-69
2021/12/24 10:12:47;;;;;;;;;;;;;;;-12.30;31.35;97285.28;6400636;27;19923;-70
2021/12/24 10:15:51;;;;;;;;;;;;;;;-13.68;33.83;97280.75;6399674;27;19944;-69
2021/12/24 10:18:59;;;;;;;;;;;;;;;-14.65;35.22;97301.59;6400563;27;19930;-70
2021/12/24 10:22:04;;;;;;;;;;;;;;;-14.96;36.35;97307.94;6400316;27;19934;-68
2021/12/24 10:25:11;;;;;;;;;;;;;;;-15.22;37.35;97316.97;6400594;27;20003;-69
2021/12/24 10:28:12;;;;;;;;;;;;;;;-15.76;38.02;97312.97;6400513;27;20437;-69
2021/12/24 10:31:43;;;;;;;;;;;;;;;-15.92;38.76;97314.81;6400363;27;20043;-69
2021/12/24 10:34:47;;;;;;;;;;;;;;;-16.23;39.43;97299.97;6396329;27;19930;-69
2021/12/24 10:38:09;;;;;;;;;;;;;;;-16.86;40.13;97297.09;6400246;27;19930;-69
2021/12/24 10:41:12;;;;;;;;;;;;;;;-16.94;40.84;97293.34;6400090;27;20398;-70
2021/12/24 10:44:16;;;;;;;;;;;;;;;-16.60;41.30;97300.78;6400251;27;19962;-70
2021/12/24 10:47:25;;;;;;;;;;;;;;;-17.09;41.58;97310.22;6400145;27;19925;-69
2021/12/24 10:50:31;;;;;;;;;;;;;;;-17.28;42.84;97311.81;6399996;27;19923;-68
2021/12/24 10:53:52;;;;;;;;;;;;;;;-17.64;42.75;97308.31;6399848;27;19919;-69
2021/12/24 10:57:13;;;;;;;;;;;;;;;-17.41;44.17;97324.56;6398801;27;20401;-68
2021/12/24 11:00:19;;;;;;;;;;;;;;;-17.40;43.94;97325.44;6398504;27;20276;-68
2021/12/24 11:03:24;;;;;;;;;;;;;;;-17.55;44.54;97321.34;6399131;27;19923;-68
2021/12/24 11:06:29;;;;;;;;;;;;;;;-17.73;44.93;97328.81;6399232;27;19968;-71
2021/12/24 11:09:32;;;;;;;;;;;;;;;-18.04;45.95;97323.91;6399395;27;19930;-70
2021/12/24 11:12:36;;;;;;;;;;;;;;;-18.15;45.92;97310.78;6397866;27;20470;-71
2021/12/24 11:15:42;;;;;;;;;;;;;;;-18.37;46.72;97338.03;6399711;27;19923;-70
2021/12/24 11:18:46;;;;;;;;;;;;;;;-18.38;46.93;97328.78;6398689;27;19930;-69
2021/12/24 11:22:01;;;;;;;;;;;;;;;-18.46;47.11;97314.94;6398527;27;19927;-69
2021/12/24 11:25:02;;;;;;;;;;;;;;;-18.63;47.53;97314.88;6398201;27;19923;-68
2021/12/24 11:28:05;;;;;;;;;;;;;;;-18.77;48.31;97318.31;6398122;27;20343;-71
2021/12/24 11:31:12;;;;;;;;;;;;;;;-18.95;48.59;97339.91;6398004;27;19937;-69
2021/12/24 11:34:16;;;;;;;;;;;;;;;-19.25;48.70;97344.91;6380270;27;20025;-69
2021/12/24 11:37:17;;;;;;;;;;;;;;;-19.40;48.99;97349.91;6398051;27;20396;-70
2021/12/24 11:40:22;;;;;;;;;;;;;;;-19.29;49.61;97353.03;6379545;27;20032;-67
2021/12/24 11:43:26;;;;;;;;;;;;;;;-19.31;49.91;97359.59;6397781;27;20018;-69
2021/12/24 11:46:29;;;;;;;;;;;;;;;-19.43;50.31;97369.78;6397479;27;19923;-69
2021/12/24 11:49:34;;;;;;;;;;;;;;;-19.51;49.88;97374.34;6398973;27;20013;-68
2021/12/24 11:52:40;;;;;;;;;;;;;;;-19.65;50.27;97377.69;6397656;27;20329;-68
2021/12/24 11:55:43;;;;;;;;;;;;;;;-19.71;51.28;97384.84;6397416;27;19923;-70
2021/12/24 11:58:49;;;;;;;;;;;;;;;-19.74;51.62;97382.19;6398227;27;20308;-69
2021/12/24 12:01:51;;;;;;;;;;;;;;;-19.64;51.93;97381.94;6396754;27;19927;-70
2021/12/24 12:05:11;;;;;;;;;;;;;;;-19.46;51.80;97388.78;6397258;27;20400;-69
2021/12/24 12:08:27;;;;;;;;;;;;;;;-19.81;52.19;97382.56;6396965;27;19930;-69
2021/12/24 12:11:30;;;;;;;;;;;;;;;-19.55;52.21;97389.97;6397190;27;19950;-68
2021/12/24 12:14:33;;;;;;;;;;;;;;;-19.72;51.86;97385.66;6397129;27;19923;-69
2021/12/24 12:17:48;;;;;;;;;;;;;;;-19.94;51.11;97389.34;6397774;27;19935;-69
2021/12/24 12:21:07;;;;;;;;;;;;;;;-20.25;52.36;97385.75;6397755;27;20312;-69
2021/12/24 12:27:17;;;;;;;;;;;;;;;-20.10;52.96;97386.69;6396402;27;20460;-69
2021/12/24 12:30:40;;;;;;;;;;;;;;;-20.03;52.75;97393.81;6396464;27;19930;-69
2021/12/24 12:33:45;;;;;;;;;;;;;;;-20.12;53.59;97418.31;6397437;27;20017;-69
2021/12/24 12:36:50;;;;;;;;;;;;;;;-20.33;53.33;97419.47;6396144;27;19923;-69
2021/12/24 12:39:56;;;;;;;;;;;;;;;-20.28;53.40;97431.50;6396070;27;20010;-69
2021/12/24 12:43:05;;;;;;;;;;;;;;;-20.24;53.38;97447.56;6396076;27;20383;-70
2021/12/24 12:46:06;;;;;;;;;;;;;;;-20.57;53.99;97442.22;6396038;27;20399;-68
2021/12/24 12:49:16;;;;;;;;;;;;;;;-20.53;53.63;97444.13;6397082;27;19923;-69
2021/12/24 12:52:31;;;;;;;;;;;;;;;-20.20;53.44;97434.47;6396411;27;19923;-69
2021/12/24 12:55:35;;;;;;;;;;;;;;;-20.19;52.55;97446.22;6396423;27;20002;-69
2021/12/24 12:58:38;;;;;;;;;;;;;;;-20.23;53.38;97445.16;6396210;27;19964;-69
2021/12/24 13:01:50;;;;;;;;;;;;;;;-20.21;53.33;97451.16;6396139;27;20396;-69
2021/12/24 13:05:10;;;;;;;;;;;;;;;-20.10;53.24;97451.78;6396457;27;20380;-68
2021/12/24 13:08:22;;;;;;;;;;;;;;;-20.25;52.93;97456.72;6396218;27;20295;-70
2021/12/24 13:11:33;;;;;;;;;;;;;;;-20.07;53.24;97451.97;6397128;27;19930;-69
2021/12/24 13:14:36;;;;;;;;;;;;;;;-20.37;52.98;97450.09;6396181;27;20062;-69
2021/12/24 13:17:44;;;;;;;;;;;;;;;-20.54;52.86;97462.41;6395745;27;19923;-70
2021/12/24 13:24:19;;;;;;;;;;;;;;;-20.93;53.50;97461.56;6366116;27;20307;-68
2021/12/24 13:27:25;;;;;;;;;;;;;;;-21.08;54.51;97476.44;6396545;27;19923;-69
2021/12/24 13:30:31;;;;;;;;;;;;;;;-21.16;54.46;97472.56;6395889;27;19972;-68
2021/12/24 13:33:35;;;;;;;;;;;;;;;-21.11;54.88;97480.38;6395546;27;19930;-69
2021/12/24 13:36:38;;;;;;;;;;;;;;;-20.85;54.39;97477.09;6399056;27;19927;-69
2021/12/24 13:39:50;;;;;;;;;;;;;;;-21.01;54.16;97477.69;6400651;27;19923;-68
2021/12/24 13:42:52;;;;;;;;;;;;;;;-20.95;53.77;97487.25;6400951;27;19944;-69
2021/12/24 13:45:56;;;;;;;;;;;;;;;-20.41;53.99;97469.88;6401391;27;19923;-69
2021/12/24 13:49:35;;;;;;;;;;;;;;;-20.37;53.89;97485.97;6400437;27;20400;-69
2021/12/24 13:55:43;;;;;;;;;;;;;;;-20.63;54.09;97481.84;6400934;27;19976;-70
2021/12/24 13:58:54;;;;;;;;;;;;;;;-20.74;54.06;97478.66;6401266;27;19923;-69
2021/12/24 14:01:57;;;;;;;;;;;;;;;-20.78;54.83;97475.84;6400209;27;19949;-70
2021/12/24 14:04:59;;;;;;;;;;;;;;;-20.87;55.17;97481.97;6399946;27;19975;-69
2021/12/24 14:08:07;;;;;;;;;;;;;;;-20.85;55.39;97482.94;6401007;27;19923;-69
2021/12/24 14:11:19;;;;;;;;;;;;;;;-20.62;55.63;97493.59;6400352;27;19926;-69
2021/12/24 14:14:38;;;;;;;;;;;;;;;-20.76;55.53;97494.31;6400962;27;20357;-69
2021/12/24 14:18:31;;;;;;;;;;;;;;;-20.53;55.93;97483.28;6400702;27;19949;-70
2021/12/24 14:24:28;;;;;;;;;;;;;;;-20.58;55.00;97490.50;6400008;27;19923;-69
2021/12/24 14:27:31;;;;;;;;;;;;;;;-20.71;55.70;97498.00;6399741;27;19923;-69
2021/12/24 14:30:34;;;;;;;;;;;;;;;-20.80;55.46;97497.38;6399471;27;19945;-69
2021/12/24 14:33:38;;;;;;;;;;;;;;;-20.77;56.13;97497.56;6399642;27;19930;-69
2021/12/24 14:36:55;;;;;;;;;;;;;;;-20.89;56.46;97503.50;6399540;27;19967;-69
2021/12/24 14:40:08;;;;;;;;;;;;;;;-20.69;56.72;97497.34;6400302;27;19922;-70
2021/12/24 14:43:10;;;;;;;;;;;;;;;-20.48;55.99;97512.81;6401948;27;19923;-69
2021/12/24 14:46:11;;;;;;;;;;;;;;;-20.61;56.36;97497.81;6400840;27;19949;-68
2021/12/24 14:49:15;;;;;;;;;;;;;;;-20.47;55.80;97504.53;6402297;27;19922;-69
2021/12/24 14:52:25;;;;;;;;;;;;;;;-20.43;54.94;97516.50;6399812;27;19923;-70
2021/12/24 14:55:26;;;;;;;;;;;;;;;-20.34;55.81;97502.84;6399378;27;19923;-69
2021/12/24 14:58:30;;;;;;;;;;;;;;;-20.71;55.80;97493.00;6399822;27;19923;-69
2021/12/24 15:01:44;;;;;;;;;;;;;;;-20.42;56.44;97497.31;6399617;27;19923;-69
2021/12/24 15:04:54;;;;;;;;;;;;;;;-20.61;55.25;97505.31;6398708;27;20419;-70
2021/12/24 15:07:56;;;;;;;;;;;;;;;-20.68;55.39;97505.69;6398564;27;19923;-69
2021/12/24 15:11:11;;;;;;;;;;;;;;;-20.71;55.34;97503.84;6398579;27;20407;-68
2021/12/24 15:14:19;;;;;;;;;;;;;;;-20.83;56.06;97505.53;6399588;27;20323;-69
2021/12/24 15:17:20;;;;;;;;;;;;;;;-20.79;56.74;97520.00;6398597;27;19983;-68
2021/12/24 15:20:22;;;;;;;;;;;;;;;-20.65;55.88;97533.41;6399251;27;19929;-69
2021/12/24 15:23:23;;;;;;;;;;;;;;;-20.87;56.40;97526.13;6398265;27;19930;-69
2021/12/24 15:26:25;;;;;;;;;;;;;;;-20.79;56.05;97539.13;6398957;27;19958;-69
2021/12/24 15:29:26;;;;;;;;;;;;;;;-20.96;56.64;97536.38;6398924;27;20445;-69
2021/12/24 15:32:28;;;;;;;;;;;;;;;-20.93;56.31;97526.59;6398896;27;20458;-69
2021/12/24 15:35:32;;;;;;;;;;;;;;;-20.96;56.49;97541.38;6398823;27;19923;-69
2021/12/24 15:38:33;;;;;;;;;;;;;;;-20.78;56.42;97540.88;6397538;27;19979;-70
2021/12/24 15:41:37;;;;;;;;;;;;;;;-20.83;55.96;97552.19;6398754;27;19926;-69
2021/12/24 15:44:46;;;;;;;;;;;;;;;-20.70;56.36;97544.75;6397995;27;19926;-69
2021/12/24 15:47:47;;;;;;;;;;;;;;;-20.63;56.55;97546.91;6397815;27;19981;-70
2021/12/24 15:50:49;;;;;;;;;;;;;;;-20.75;56.24;97541.94;6397959;27;20410;-70
2021/12/24 15:53:50;;;;;;;;;;;;;;;-20.74;56.21;97552.81;6398464;27;19930;-71
2021/12/24 15:56:54;;;;;;;;;;;;;;;-20.70;56.54;97559.75;6398576;27;19923;-70
2021/12/24 15:59:55;;;;;;;;;;;;;;;-20.64;56.19;97556.00;6397015;27;19937;-70
2021/12/24 16:02:56;;;;;;;;;;;;;;;-20.73;56.15;97554.53;6397835;27;20018;-69
2021/12/24 16:05:57;;;;;;;;;;;;;;;-20.61;56.03;97550.34;6397320;27;20320;-69
2021/12/24 16:09:00;;;;;;;;;;;;;;;-20.59;56.93;97561.31;6397749;27;19931;-68
2021/12/24 16:12:02;;;;;;;;;;;;;;;-20.55;56.07;97553.25;6397164;27;19930;-69
2021/12/24 16:15:04;;;;;;;;;;;;;;;-20.58;56.55;97565.56;6397314;27;20326;-69
2021/12/24 16:18:05;;;;;;;;;;;;;;;-20.71;55.90;97573.03;6397096;27;19930;-69
2021/12/24 16:21:08;;;;;;;;;;;;;;;-20.70;56.50;97569.75;6398045;27;20411;-69
2021/12/24 16:24:10;;;;;;;;;;;;;;;-20.66;56.12;97580.06;6378919;27;20391;-69
2021/12/24 16:27:11;;;;;;;;;;;;;;;-20.90;56.48;97575.94;6396403;27;19923;-69
2021/12/24 16:30:13;;;;;;;;;;;;;;;-21.01;56.45;97587.69;6378630;27;19930;-69
2021/12/24 16:33:19;;;;;;;;;;;;;;;-20.88;56.78;97582.78;6379557;27;19923;-69
2021/12/24 16:36:23;;;;;;;;;;;;;;;-20.94;56.68;97594.88;6397412;27;20334;-68
2021/12/24 16:39:29;;;;;;;;;;;;;;;-21.35;56.99;97592.91;6397584;27;19923;-69
2021/12/24 16:42:32;;;;;;;;;;;;;;;-21.47;57.77;97594.59;6396921;27;20010;-69
2021/12/24 16:45:33;;;;;;;;;;;;;;;-21.51;58.62;97580.13;6396908;27;19923;-69
2021/12/24 16:48:35;;;;;;;;;;;;;;;-21.38;57.92;97585.22;6396318;27;19923;-69
2021/12/24 16:51:36;;;;;;;;;;;;;;;-21.46;58.36;97586.31;6378860;27;20293;-69
2021/12/24 16:54:38;;;;;;;;;;;;;;;-21.40;58.44;97591.75;6379652;27;19927;-69
2021/12/24 16:57:42;;;;;;;;;;;;;;;-21.37;58.35;97599.47;6397400;27;19923;-70
2021/12/24 17:00:44;;;;;;;;;;;;;;;-20.98;58.46;97592.91;6396452;27;19952;-69
2021/12/24 17:03:51;;;;;;;;;;;;;;;-21.15;57.46;97603.41;6397318;27;20014;-70
2021/12/24 17:06:52;;;;;;;;;;;;;;;-21.26;58.35;97599.28;6396577;27;20082;-68
2021/12/24 17:09:53;;;;;;;;;;;;;;;-21.51;58.33;97602.63;6396658;27;19923;-69
2021/12/24 17:12:54;;;;;;;;;;;;;;;-21.49;57.50;97611.09;6401971;27;19923;-69
2021/12/24 17:15:55;;;;;;;;;;;;;;;-21.87;58.84;97611.78;6401239;27;20288;-69
2021/12/24 17:18:57;;;;;;;;;;;;;;;-21.96;58.65;97608.63;6401664;27;19923;-70
2021/12/24 17:21:58;;;;;;;;;;;;;;;-21.95;59.46;97607.00;6401375;27;19927;-69
2021/12/24 17:24:59;;;;;;;;;;;;;;;-21.35;58.88;97605.41;6401435;27;20380;-69
2021/12/24 17:28:00;;;;;;;;;;;;;;;-21.27;58.41;97598.44;6400928;27;19923;-69
2021/12/24 17:31:01;;;;;;;;;;;;;;;-21.07;58.18;97603.16;6401649;27;20341;-70
2021/12/24 17:34:04;;;;;;;;;;;;;;;-20.90;57.98;97600.94;6402225;27;20017;-69
2021/12/24 17:37:08;;;;;;;;;;;;;;;-20.95;58.30;97585.63;6402223;27;19923;-71
2021/12/24 17:40:10;;;;;;;;;;;;;;;-20.95;58.09;97588.13;6400322;27;19930;-69